sensor_id;sensor_type;location;lat;lon;timestamp;P1;durP1;ratioP1;P2;durP2;ratioP2
1416;SDS011;703;51.162;13.574;2022-10-31T00:00:58;50.33;;;14.40;;
1416;SDS011;703;51.162;13.574;2022-10-31T00:03:24;52.80;;;14.87;;
1416;SDS011;703;51.162;13.574;2022-10-31T00:05:51;51.20;;;15.33;;
1416;SDS011;703;51.162;13.574;2022-10-31T00:08:17;49.60;;;15.70;;
1416;SDS011;703;51.162;13.574;2022-10-31T00:10:44;50.10;;;16.80;;
1416;SDS011;703;51.162;13.574;2022-10-31T00:13:10;50.50;;;15.13;;
1416;SDS011;703;51.162;13.574;2022-10-31T00:15:37;51.10;;;14.20;;
1416;SDS011;703;51.162;13.574;2022-10-31T00:18:04;51.20;;;15.23;;
1416;SDS011;703;51.162;13.574;2022-10-31T00:20:31;52.97;;;16.60;;
1416;SDS011;703;51.162;13.574;2022-10-31T00:22:58;50.93;;;16.10;;
1416;SDS011;703;51.162;13.574;2022-10-31T00:25:24;50.23;;;15.63;;
1416;SDS011;703;51.162;13.574;2022-10-31T00:27:50;50.63;;;14.90;;
1416;SDS011;703;51.162;13.574;2022-10-31T00:30:16;49.63;;;15.00;;
1416;SDS011;703;51.162;13.574;2022-10-31T00:32:42;51.87;;;14.17;;
1416;SDS011;703;51.162;13.574;2022-10-31T00:35:08;50.43;;;15.63;;
1416;SDS011;703;51.162;13.574;2022-10-31T00:37:34;47.50;;;14.13;;
1416;SDS011;703;51.162;13.574;2022-10-31T00:40:00;48.43;;;13.43;;
1416;SDS011;703;51.162;13.574;2022-10-31T00:42:26;55.90;;;16.27;;
1416;SDS011;703;51.162;13.574;2022-10-31T00:44:51;52.80;;;15.87;;
1416;SDS011;703;51.162;13.574;2022-10-31T00:47:17;48.73;;;13.90;;
1416;SDS011;703;51.162;13.574;2022-10-31T00:49:43;49.93;;;14.70;;
1416;SDS011;703;51.162;13.574;2022-10-31T00:52:09;51.83;;;16.23;;
1416;SDS011;703;51.162;13.574;2022-10-31T00:54:35;50.10;;;14.47;;
1416;SDS011;703;51.162;13.574;2022-10-31T00:57:01;49.63;;;15.30;;
1416;SDS011;703;51.162;13.574;2022-10-31T00:59:27;50.60;;;15.20;;
1416;SDS011;703;51.162;13.574;2022-10-31T01:01:52;48.50;;;12.53;;
1416;SDS011;703;51.162;13.574;2022-10-31T01:04:18;51.00;;;12.90;;
1416;SDS011;703;51.162;13.574;2022-10-31T01:06:44;48.43;;;13.20;;
1416;SDS011;703;51.162;13.574;2022-10-31T01:09:10;57.53;;;13.70;;
1416;SDS011;703;51.162;13.574;2022-10-31T01:11:36;49.10;;;14.13;;
1416;SDS011;703;51.162;13.574;2022-10-31T01:14:02;46.73;;;13.00;;
1416;SDS011;703;51.162;13.574;2022-10-31T01:16:28;53.17;;;13.70;;
1416;SDS011;703;51.162;13.574;2022-10-31T01:18:54;49.53;;;14.37;;
1416;SDS011;703;51.162;13.574;2022-10-31T01:21:21;48.47;;;12.77;;
1416;SDS011;703;51.162;13.574;2022-10-31T01:23:49;56.07;;;14.70;;
1416;SDS011;703;51.162;13.574;2022-10-31T01:26:25;50.73;;;13.97;;
1416;SDS011;703;51.162;13.574;2022-10-31T01:28:54;52.70;;;13.23;;
1416;SDS011;703;51.162;13.574;2022-10-31T01:31:23;56.77;;;14.67;;
1416;SDS011;703;51.162;13.574;2022-10-31T01:33:50;47.23;;;11.73;;
1416;SDS011;703;51.162;13.574;2022-10-31T01:38:42;49.90;;;12.70;;
1416;SDS011;703;51.162;13.574;2022-10-31T01:41:08;49.00;;;12.03;;
1416;SDS011;703;51.162;13.574;2022-10-31T01:43:46;51.20;;;11.87;;
1416;SDS011;703;51.162;13.574;2022-10-31T01:46:15;46.80;;;11.63;;
1416;SDS011;703;51.162;13.574;2022-10-31T01:48:46;48.60;;;12.23;;
1416;SDS011;703;51.162;13.574;2022-10-31T01:51:13;46.33;;;10.40;;
1416;SDS011;703;51.162;13.574;2022-10-31T01:53:40;47.47;;;11.87;;
1416;SDS011;703;51.162;13.574;2022-10-31T01:56:09;50.10;;;13.70;;
1416;SDS011;703;51.162;13.574;2022-10-31T01:58:35;49.30;;;10.73;;
1416;SDS011;703;51.162;13.574;2022-10-31T02:01:01;46.90;;;11.30;;
1416;SDS011;703;51.162;13.574;2022-10-31T02:03:28;50.90;;;14.43;;
1416;SDS011;703;51.162;13.574;2022-10-31T02:05:55;50.53;;;13.50;;
1416;SDS011;703;51.162;13.574;2022-10-31T02:08:29;50.47;;;13.30;;
1416;SDS011;703;51.162;13.574;2022-10-31T02:10:57;50.70;;;11.10;;
1416;SDS011;703;51.162;13.574;2022-10-31T02:13:25;50.40;;;12.87;;
1416;SDS011;703;51.162;13.574;2022-10-31T02:15:53;48.00;;;12.33;;
1416;SDS011;703;51.162;13.574;2022-10-31T02:18:20;47.43;;;12.27;;
1416;SDS011;703;51.162;13.574;2022-10-31T02:20:50;50.90;;;12.40;;
1416;SDS011;703;51.162;13.574;2022-10-31T02:31:43;47.77;;;10.50;;
1416;SDS011;703;51.162;13.574;2022-10-31T02:37:09;48.57;;;11.67;;
1416;SDS011;703;51.162;13.574;2022-10-31T02:40:04;48.80;;;12.33;;
1416;SDS011;703;51.162;13.574;2022-10-31T02:42:57;50.97;;;11.60;;
1416;SDS011;703;51.162;13.574;2022-10-31T02:45:41;52.07;;;13.60;;
1416;SDS011;703;51.162;13.574;2022-10-31T02:48:30;49.07;;;12.13;;
1416;SDS011;703;51.162;13.574;2022-10-31T02:51:00;56.13;;;15.03;;
1416;SDS011;703;51.162;13.574;2022-10-31T02:53:31;49.30;;;12.70;;
1416;SDS011;703;51.162;13.574;2022-10-31T02:56:02;57.63;;;13.00;;
1416;SDS011;703;51.162;13.574;2022-10-31T02:58:33;47.87;;;12.60;;
1416;SDS011;703;51.162;13.574;2022-10-31T03:01:10;50.00;;;13.83;;
1416;SDS011;703;51.162;13.574;2022-10-31T03:10:10;50.50;;;11.63;;
1416;SDS011;703;51.162;13.574;2022-10-31T03:18:04;45.77;;;10.77;;
1416;SDS011;703;51.162;13.574;2022-10-31T03:20:40;49.17;;;13.33;;
1416;SDS011;703;51.162;13.574;2022-10-31T03:23:10;49.00;;;13.33;;
1416;SDS011;703;51.162;13.574;2022-10-31T03:25:39;48.90;;;11.50;;
1416;SDS011;703;51.162;13.574;2022-10-31T03:28:06;49.50;;;13.03;;
1416;SDS011;703;51.162;13.574;2022-10-31T03:30:34;50.80;;;12.80;;
1416;SDS011;703;51.162;13.574;2022-10-31T03:33:02;52.57;;;14.70;;
1416;SDS011;703;51.162;13.574;2022-10-31T03:35:31;51.20;;;13.30;;
1416;SDS011;703;51.162;13.574;2022-10-31T03:37:59;49.40;;;12.60;;
1416;SDS011;703;51.162;13.574;2022-10-31T03:40:26;48.30;;;11.83;;
1416;SDS011;703;51.162;13.574;2022-10-31T03:43:00;50.83;;;14.40;;
1416;SDS011;703;51.162;13.574;2022-10-31T03:45:30;50.53;;;13.77;;
1416;SDS011;703;51.162;13.574;2022-10-31T03:47:57;50.63;;;12.97;;
1416;SDS011;703;51.162;13.574;2022-10-31T03:50:24;51.03;;;12.33;;
1416;SDS011;703;51.162;13.574;2022-10-31T03:52:57;50.70;;;13.00;;
1416;SDS011;703;51.162;13.574;2022-10-31T03:55:30;49.30;;;11.83;;
1416;SDS011;703;51.162;13.574;2022-10-31T03:58:02;48.33;;;13.23;;
1416;SDS011;703;51.162;13.574;2022-10-31T04:00:33;49.03;;;13.10;;
1416;SDS011;703;51.162;13.574;2022-10-31T04:03:14;48.30;;;12.97;;
1416;SDS011;703;51.162;13.574;2022-10-31T04:05:45;52.90;;;13.43;;
1416;SDS011;703;51.162;13.574;2022-10-31T04:08:14;48.57;;;12.40;;
1416;SDS011;703;51.162;13.574;2022-10-31T04:10:43;53.00;;;17.13;;
1416;SDS011;703;51.162;13.574;2022-10-31T04:13:13;54.13;;;16.10;;
1416;SDS011;703;51.162;13.574;2022-10-31T04:15:42;53.50;;;17.00;;
1416;SDS011;703;51.162;13.574;2022-10-31T04:18:09;51.90;;;14.97;;
1416;SDS011;703;51.162;13.574;2022-10-31T04:20:36;59.23;;;16.40;;
1416;SDS011;703;51.162;13.574;2022-10-31T04:23:03;51.10;;;15.90;;
1416;SDS011;703;51.162;13.574;2022-10-31T04:25:29;56.97;;;17.37;;
1416;SDS011;703;51.162;13.574;2022-10-31T04:27:55;52.20;;;15.83;;
1416;SDS011;703;51.162;13.574;2022-10-31T04:30:21;54.50;;;17.07;;
1416;SDS011;703;51.162;13.574;2022-10-31T04:32:47;56.87;;;16.40;;
1416;SDS011;703;51.162;13.574;2022-10-31T04:35:13;55.33;;;16.03;;
1416;SDS011;703;51.162;13.574;2022-10-31T04:37:39;55.53;;;17.10;;
1416;SDS011;703;51.162;13.574;2022-10-31T04:40:05;53.20;;;16.27;;
1416;SDS011;703;51.162;13.574;2022-10-31T04:42:31;53.67;;;18.30;;
1416;SDS011;703;51.162;13.574;2022-10-31T04:44:57;53.90;;;16.50;;
1416;SDS011;703;51.162;13.574;2022-10-31T04:47:23;51.90;;;16.27;;
1416;SDS011;703;51.162;13.574;2022-10-31T04:49:48;55.80;;;18.30;;
1416;SDS011;703;51.162;13.574;2022-10-31T04:52:14;53.77;;;15.37;;
1416;SDS011;703;51.162;13.574;2022-10-31T04:54:40;50.07;;;14.10;;
1416;SDS011;703;51.162;13.574;2022-10-31T04:57:06;51.37;;;16.33;;
1416;SDS011;703;51.162;13.574;2022-10-31T04:59:32;52.07;;;16.10;;
1416;SDS011;703;51.162;13.574;2022-10-31T05:01:58;55.00;;;18.07;;
1416;SDS011;703;51.162;13.574;2022-10-31T05:04:23;52.40;;;16.10;;
1416;SDS011;703;51.162;13.574;2022-10-31T05:06:49;54.30;;;16.23;;
1416;SDS011;703;51.162;13.574;2022-10-31T05:09:15;53.03;;;17.10;;
1416;SDS011;703;51.162;13.574;2022-10-31T05:11:41;51.23;;;14.80;;
1416;SDS011;703;51.162;13.574;2022-10-31T05:14:07;50.60;;;14.97;;
1416;SDS011;703;51.162;13.574;2022-10-31T05:16:33;56.53;;;16.77;;
1416;SDS011;703;51.162;13.574;2022-10-31T05:18:59;50.60;;;15.47;;
1416;SDS011;703;51.162;13.574;2022-10-31T05:21:24;52.93;;;14.90;;
1416;SDS011;703;51.162;13.574;2022-10-31T05:23:50;56.40;;;16.53;;
1416;SDS011;703;51.162;13.574;2022-10-31T05:26:17;54.37;;;16.10;;
1416;SDS011;703;51.162;13.574;2022-10-31T05:28:43;50.80;;;14.20;;
1416;SDS011;703;51.162;13.574;2022-10-31T05:31:08;51.73;;;15.13;;
1416;SDS011;703;51.162;13.574;2022-10-31T05:33:34;50.37;;;14.57;;
1416;SDS011;703;51.162;13.574;2022-10-31T05:36:00;54.57;;;18.03;;
1416;SDS011;703;51.162;13.574;2022-10-31T05:38:26;57.47;;;18.40;;
1416;SDS011;703;51.162;13.574;2022-10-31T05:40:55;54.80;;;18.73;;
1416;SDS011;703;51.162;13.574;2022-10-31T05:43:27;57.93;;;19.07;;
1416;SDS011;703;51.162;13.574;2022-10-31T05:45:54;55.77;;;18.57;;
1416;SDS011;703;51.162;13.574;2022-10-31T05:48:20;58.27;;;19.83;;
1416;SDS011;703;51.162;13.574;2022-10-31T05:50:47;58.07;;;20.30;;
1416;SDS011;703;51.162;13.574;2022-10-31T05:53:13;59.03;;;18.43;;
1416;SDS011;703;51.162;13.574;2022-10-31T05:55:39;55.60;;;19.93;;
1416;SDS011;703;51.162;13.574;2022-10-31T05:58:08;54.70;;;17.80;;
1416;SDS011;703;51.162;13.574;2022-10-31T06:00:34;57.53;;;21.40;;
1416;SDS011;703;51.162;13.574;2022-10-31T06:03:00;55.70;;;19.83;;
1416;SDS011;703;51.162;13.574;2022-10-31T06:05:28;56.00;;;18.83;;
1416;SDS011;703;51.162;13.574;2022-10-31T06:07:54;60.83;;;22.20;;
1416;SDS011;703;51.162;13.574;2022-10-31T06:10:20;57.33;;;18.83;;
1416;SDS011;703;51.162;13.574;2022-10-31T06:12:46;57.33;;;20.57;;
1416;SDS011;703;51.162;13.574;2022-10-31T06:15:12;55.20;;;17.40;;
1416;SDS011;703;51.162;13.574;2022-10-31T06:17:38;54.13;;;17.67;;
1416;SDS011;703;51.162;13.574;2022-10-31T06:20:05;63.47;;;25.60;;
1416;SDS011;703;51.162;13.574;2022-10-31T06:22:31;62.57;;;22.37;;
1416;SDS011;703;51.162;13.574;2022-10-31T06:24:57;61.97;;;25.20;;
1416;SDS011;703;51.162;13.574;2022-10-31T06:27:23;65.03;;;26.77;;
1416;SDS011;703;51.162;13.574;2022-10-31T06:29:49;63.67;;;25.33;;
1416;SDS011;703;51.162;13.574;2022-10-31T06:32:14;63.13;;;25.50;;
1416;SDS011;703;51.162;13.574;2022-10-31T06:34:41;65.90;;;27.73;;
1416;SDS011;703;51.162;13.574;2022-10-31T06:37:07;58.17;;;22.27;;
1416;SDS011;703;51.162;13.574;2022-10-31T06:39:34;64.60;;;27.50;;
1416;SDS011;703;51.162;13.574;2022-10-31T06:42:00;65.83;;;27.03;;
1416;SDS011;703;51.162;13.574;2022-10-31T06:44:26;64.67;;;28.37;;
1416;SDS011;703;51.162;13.574;2022-10-31T06:46:52;64.07;;;27.97;;
1416;SDS011;703;51.162;13.574;2022-10-31T06:49:18;63.10;;;25.47;;
1416;SDS011;703;51.162;13.574;2022-10-31T06:51:46;68.73;;;30.97;;
1416;SDS011;703;51.162;13.574;2022-10-31T06:54:13;74.97;;;34.40;;
1416;SDS011;703;51.162;13.574;2022-10-31T06:56:39;72.70;;;33.20;;
1416;SDS011;703;51.162;13.574;2022-10-31T06:59:05;72.67;;;31.30;;
1416;SDS011;703;51.162;13.574;2022-10-31T07:01:31;67.63;;;31.50;;
1416;SDS011;703;51.162;13.574;2022-10-31T07:03:57;67.77;;;31.80;;
1416;SDS011;703;51.162;13.574;2022-10-31T07:06:23;69.63;;;33.10;;
1416;SDS011;703;51.162;13.574;2022-10-31T07:08:49;71.17;;;31.67;;
1416;SDS011;703;51.162;13.574;2022-10-31T07:11:15;68.67;;;30.63;;
1416;SDS011;703;51.162;13.574;2022-10-31T07:13:42;63.33;;;28.00;;
1416;SDS011;703;51.162;13.574;2022-10-31T07:16:08;61.97;;;25.50;;
1416;SDS011;703;51.162;13.574;2022-10-31T07:18:36;60.63;;;24.53;;
1416;SDS011;703;51.162;13.574;2022-10-31T07:21:03;58.60;;;23.53;;
1416;SDS011;703;51.162;13.574;2022-10-31T07:23:29;58.33;;;21.63;;
1416;SDS011;703;51.162;13.574;2022-10-31T07:25:58;58.40;;;21.17;;
1416;SDS011;703;51.162;13.574;2022-10-31T07:28:25;60.60;;;21.90;;
1416;SDS011;703;51.162;13.574;2022-10-31T07:30:52;57.80;;;22.00;;
1416;SDS011;703;51.162;13.574;2022-10-31T07:33:19;57.97;;;21.53;;
1416;SDS011;703;51.162;13.574;2022-10-31T07:35:45;53.90;;;18.77;;
1416;SDS011;703;51.162;13.574;2022-10-31T07:38:11;51.60;;;18.30;;
1416;SDS011;703;51.162;13.574;2022-10-31T07:40:38;54.17;;;20.23;;
1416;SDS011;703;51.162;13.574;2022-10-31T07:43:04;54.60;;;19.93;;
1416;SDS011;703;51.162;13.574;2022-10-31T07:45:30;52.27;;;17.40;;
1416;SDS011;703;51.162;13.574;2022-10-31T07:47:56;55.03;;;19.00;;
1416;SDS011;703;51.162;13.574;2022-10-31T07:50:23;55.67;;;20.40;;
1416;SDS011;703;51.162;13.574;2022-10-31T07:52:58;51.90;;;19.00;;
1416;SDS011;703;51.162;13.574;2022-10-31T07:55:25;52.60;;;18.47;;
1416;SDS011;703;51.162;13.574;2022-10-31T07:58:01;51.40;;;18.73;;
1416;SDS011;703;51.162;13.574;2022-10-31T08:00:29;49.43;;;16.57;;
1416;SDS011;703;51.162;13.574;2022-10-31T08:03:15;50.40;;;16.90;;
1416;SDS011;703;51.162;13.574;2022-10-31T08:05:42;54.03;;;17.33;;
1416;SDS011;703;51.162;13.574;2022-10-31T08:08:10;51.50;;;18.30;;
1416;SDS011;703;51.162;13.574;2022-10-31T08:10:36;51.60;;;18.40;;
1416;SDS011;703;51.162;13.574;2022-10-31T08:13:03;51.30;;;16.57;;
1416;SDS011;703;51.162;13.574;2022-10-31T08:15:31;49.13;;;16.80;;
1416;SDS011;703;51.162;13.574;2022-10-31T08:17:59;49.17;;;15.43;;
1416;SDS011;703;51.162;13.574;2022-10-31T08:20:24;48.67;;;15.00;;
1416;SDS011;703;51.162;13.574;2022-10-31T08:22:54;48.33;;;15.27;;
1416;SDS011;703;51.162;13.574;2022-10-31T08:25:31;46.17;;;15.00;;
1416;SDS011;703;51.162;13.574;2022-10-31T08:27:58;49.83;;;15.70;;
1416;SDS011;703;51.162;13.574;2022-10-31T08:30:25;47.40;;;15.17;;
1416;SDS011;703;51.162;13.574;2022-10-31T08:33:04;45.77;;;14.57;;
1416;SDS011;703;51.162;13.574;2022-10-31T08:35:29;45.53;;;13.23;;
1416;SDS011;703;51.162;13.574;2022-10-31T08:37:57;49.53;;;13.87;;
1416;SDS011;703;51.162;13.574;2022-10-31T08:40:23;45.90;;;13.57;;
1416;SDS011;703;51.162;13.574;2022-10-31T08:42:59;47.17;;;14.97;;
1416;SDS011;703;51.162;13.574;2022-10-31T08:45:26;48.57;;;12.40;;
1416;SDS011;703;51.162;13.574;2022-10-31T08:47:56;44.63;;;11.90;;
1416;SDS011;703;51.162;13.574;2022-10-31T08:50:22;43.80;;;12.70;;
1416;SDS011;703;51.162;13.574;2022-10-31T08:52:48;44.63;;;12.87;;
1416;SDS011;703;51.162;13.574;2022-10-31T08:55:13;43.20;;;11.33;;
1416;SDS011;703;51.162;13.574;2022-10-31T08:57:39;45.93;;;11.80;;
1416;SDS011;703;51.162;13.574;2022-10-31T09:00:05;44.80;;;13.03;;
1416;SDS011;703;51.162;13.574;2022-10-31T09:02:31;43.87;;;12.27;;
1416;SDS011;703;51.162;13.574;2022-10-31T09:04:57;42.90;;;10.20;;
1416;SDS011;703;51.162;13.574;2022-10-31T09:07:22;40.50;;;10.60;;
1416;SDS011;703;51.162;13.574;2022-10-31T09:09:48;44.87;;;10.60;;
1416;SDS011;703;51.162;13.574;2022-10-31T09:12:13;40.40;;;9.63;;
1416;SDS011;703;51.162;13.574;2022-10-31T09:14:40;39.50;;;9.00;;
1416;SDS011;703;51.162;13.574;2022-10-31T09:17:05;42.83;;;9.80;;
1416;SDS011;703;51.162;13.574;2022-10-31T09:19:31;40.80;;;10.43;;
1416;SDS011;703;51.162;13.574;2022-10-31T09:21:56;40.50;;;9.30;;
1416;SDS011;703;51.162;13.574;2022-10-31T09:24:22;38.50;;;9.60;;
1416;SDS011;703;51.162;13.574;2022-10-31T09:26:48;39.87;;;10.10;;
1416;SDS011;703;51.162;13.574;2022-10-31T09:29:13;39.43;;;10.67;;
1416;SDS011;703;51.162;13.574;2022-10-31T09:31:39;44.43;;;10.47;;
1416;SDS011;703;51.162;13.574;2022-10-31T09:34:05;40.40;;;10.90;;
1416;SDS011;703;51.162;13.574;2022-10-31T09:36:30;40.17;;;10.77;;
1416;SDS011;703;51.162;13.574;2022-10-31T09:38:56;38.40;;;9.70;;
1416;SDS011;703;51.162;13.574;2022-10-31T09:41:28;41.80;;;10.67;;
1416;SDS011;703;51.162;13.574;2022-10-31T09:44:02;42.50;;;10.20;;
1416;SDS011;703;51.162;13.574;2022-10-31T09:47:05;44.67;;;10.30;;
1416;SDS011;703;51.162;13.574;2022-10-31T09:52:32;40.30;;;10.00;;
1416;SDS011;703;51.162;13.574;2022-10-31T09:55:13;39.30;;;8.97;;
1416;SDS011;703;51.162;13.574;2022-10-31T09:57:43;38.70;;;9.90;;
1416;SDS011;703;51.162;13.574;2022-10-31T10:00:20;39.80;;;7.67;;
1416;SDS011;703;51.162;13.574;2022-10-31T10:02:56;38.47;;;8.30;;
1416;SDS011;703;51.162;13.574;2022-10-31T10:05:53;42.43;;;9.57;;
1416;SDS011;703;51.162;13.574;2022-10-31T10:08:27;41.20;;;8.67;;
1416;SDS011;703;51.162;13.574;2022-10-31T10:16:05;37.93;;;8.40;;
1416;SDS011;703;51.162;13.574;2022-10-31T10:21:31;40.67;;;9.90;;
1416;SDS011;703;51.162;13.574;2022-10-31T10:32:53;47.30;;;12.90;;
1416;SDS011;703;51.162;13.574;2022-10-31T10:35:31;44.00;;;13.63;;
1416;SDS011;703;51.162;13.574;2022-10-31T10:38:04;40.43;;;10.67;;
1416;SDS011;703;51.162;13.574;2022-10-31T10:40:47;42.93;;;11.80;;
1416;SDS011;703;51.162;13.574;2022-10-31T10:43:29;41.00;;;12.00;;
1416;SDS011;703;51.162;13.574;2022-10-31T10:46:13;44.30;;;12.07;;
1416;SDS011;703;51.162;13.574;2022-10-31T11:00:00;46.37;;;15.73;;
1416;SDS011;703;51.162;13.574;2022-10-31T11:02:38;44.00;;;16.40;;
1416;SDS011;703;51.162;13.574;2022-10-31T11:05:06;47.13;;;21.20;;
1416;SDS011;703;51.162;13.574;2022-10-31T11:07:43;50.90;;;20.60;;
1416;SDS011;703;51.162;13.574;2022-10-31T11:10:13;47.23;;;19.60;;
1416;SDS011;703;51.162;13.574;2022-10-31T11:12:39;52.50;;;21.63;;
1416;SDS011;703;51.162;13.574;2022-10-31T11:15:07;46.33;;;19.63;;
1416;SDS011;703;51.162;13.574;2022-10-31T11:17:48;44.47;;;18.40;;
1416;SDS011;703;51.162;13.574;2022-10-31T11:22:48;47.30;;;19.90;;
1416;SDS011;703;51.162;13.574;2022-10-31T11:25:21;48.73;;;20.33;;
1416;SDS011;703;51.162;13.574;2022-10-31T11:28:04;50.23;;;16.10;;
1416;SDS011;703;51.162;13.574;2022-10-31T11:30:44;45.77;;;20.20;;
1416;SDS011;703;51.162;13.574;2022-10-31T11:33:26;48.80;;;16.80;;
1416;SDS011;703;51.162;13.574;2022-10-31T11:35:53;43.70;;;17.27;;
1416;SDS011;703;51.162;13.574;2022-10-31T11:38:21;48.47;;;17.97;;
1416;SDS011;703;51.162;13.574;2022-10-31T11:40:59;40.13;;;15.47;;
1416;SDS011;703;51.162;13.574;2022-10-31T11:43:32;45.00;;;15.03;;
1416;SDS011;703;51.162;13.574;2022-10-31T11:45:58;44.33;;;16.10;;
1416;SDS011;703;51.162;13.574;2022-10-31T11:48:23;42.17;;;14.93;;
1416;SDS011;703;51.162;13.574;2022-10-31T11:50:54;44.40;;;16.40;;
1416;SDS011;703;51.162;13.574;2022-10-31T11:53:32;42.17;;;17.70;;
1416;SDS011;703;51.162;13.574;2022-10-31T11:56:03;44.80;;;20.37;;
1416;SDS011;703;51.162;13.574;2022-10-31T11:58:40;44.10;;;15.93;;
1416;SDS011;703;51.162;13.574;2022-10-31T12:01:08;40.80;;;17.23;;
1416;SDS011;703;51.162;13.574;2022-10-31T12:04:09;47.30;;;16.90;;
1416;SDS011;703;51.162;13.574;2022-10-31T12:06:43;40.73;;;13.33;;
1416;SDS011;703;51.162;13.574;2022-10-31T12:11:43;42.77;;;15.53;;
1416;SDS011;703;51.162;13.574;2022-10-31T12:17:06;46.93;;;14.03;;
1416;SDS011;703;51.162;13.574;2022-10-31T12:19:45;42.43;;;16.93;;
1416;SDS011;703;51.162;13.574;2022-10-31T12:22:32;42.27;;;14.77;;
1416;SDS011;703;51.162;13.574;2022-10-31T12:36:58;43.50;;;13.20;;
1416;SDS011;703;51.162;13.574;2022-10-31T12:39:46;40.50;;;14.57;;
1416;SDS011;703;51.162;13.574;2022-10-31T12:47:50;41.10;;;16.80;;
1416;SDS011;703;51.162;13.574;2022-10-31T12:56:11;43.10;;;16.03;;
1416;SDS011;703;51.162;13.574;2022-10-31T12:58:56;39.37;;;13.70;;
1416;SDS011;703;51.162;13.574;2022-10-31T13:01:36;39.87;;;13.07;;
1416;SDS011;703;51.162;13.574;2022-10-31T13:07:06;38.87;;;14.60;;
1416;SDS011;703;51.162;13.574;2022-10-31T13:12:23;37.10;;;12.87;;
1416;SDS011;703;51.162;13.574;2022-10-31T13:14:52;38.17;;;12.83;;
1416;SDS011;703;51.162;13.574;2022-10-31T13:17:22;38.47;;;11.23;;
1416;SDS011;703;51.162;13.574;2022-10-31T13:19:49;38.37;;;9.77;;
1416;SDS011;703;51.162;13.574;2022-10-31T13:22:19;38.90;;;10.93;;
1416;SDS011;703;51.162;13.574;2022-10-31T13:30:19;40.87;;;12.63;;
1416;SDS011;703;51.162;13.574;2022-10-31T13:33:05;36.37;;;10.30;;
1416;SDS011;703;51.162;13.574;2022-10-31T13:35:51;38.80;;;11.10;;
1416;SDS011;703;51.162;13.574;2022-10-31T13:43:27;38.53;;;10.10;;
1416;SDS011;703;51.162;13.574;2022-10-31T13:45:58;37.03;;;9.40;;
1416;SDS011;703;51.162;13.574;2022-10-31T13:50:59;36.40;;;9.20;;
1416;SDS011;703;51.162;13.574;2022-10-31T13:53:35;34.73;;;9.50;;
1416;SDS011;703;51.162;13.574;2022-10-31T13:58:32;40.20;;;8.50;;
1416;SDS011;703;51.162;13.574;2022-10-31T14:03:47;38.17;;;9.57;;
1416;SDS011;703;51.162;13.574;2022-10-31T14:06:36;37.23;;;8.50;;
1416;SDS011;703;51.162;13.574;2022-10-31T14:09:05;35.27;;;9.43;;
1416;SDS011;703;51.162;13.574;2022-10-31T14:11:45;35.53;;;7.87;;
1416;SDS011;703;51.162;13.574;2022-10-31T14:14:12;39.00;;;9.23;;
1416;SDS011;703;51.162;13.574;2022-10-31T14:16:39;36.83;;;10.10;;
1416;SDS011;703;51.162;13.574;2022-10-31T14:19:16;39.63;;;10.17;;
1416;SDS011;703;51.162;13.574;2022-10-31T14:21:45;38.23;;;8.80;;
1416;SDS011;703;51.162;13.574;2022-10-31T14:29:26;42.27;;;8.47;;
1416;SDS011;703;51.162;13.574;2022-10-31T14:32:06;41.27;;;7.77;;
1416;SDS011;703;51.162;13.574;2022-10-31T14:34:53;34.10;;;6.33;;
1416;SDS011;703;51.162;13.574;2022-10-31T14:40:21;38.53;;;7.30;;
1416;SDS011;703;51.162;13.574;2022-10-31T14:51:19;38.30;;;7.13;;
1416;SDS011;703;51.162;13.574;2022-10-31T14:56:16;36.13;;;7.20;;
1416;SDS011;703;51.162;13.574;2022-10-31T14:58:47;37.93;;;7.53;;
1416;SDS011;703;51.162;13.574;2022-10-31T15:07:00;37.03;;;9.00;;
1416;SDS011;703;51.162;13.574;2022-10-31T15:10:00;36.67;;;7.80;;
1416;SDS011;703;51.162;13.574;2022-10-31T15:12:32;36.23;;;8.50;;
1416;SDS011;703;51.162;13.574;2022-10-31T15:15:18;36.40;;;7.93;;
1416;SDS011;703;51.162;13.574;2022-10-31T15:17:51;38.07;;;8.03;;
1416;SDS011;703;51.162;13.574;2022-10-31T15:20:20;39.33;;;8.80;;
1416;SDS011;703;51.162;13.574;2022-10-31T15:22:48;37.73;;;8.60;;
1416;SDS011;703;51.162;13.574;2022-10-31T15:25:17;40.70;;;9.17;;
1416;SDS011;703;51.162;13.574;2022-10-31T15:27:44;39.77;;;10.03;;
1416;SDS011;703;51.162;13.574;2022-10-31T15:30:19;41.50;;;10.00;;
1416;SDS011;703;51.162;13.574;2022-10-31T15:32:46;42.30;;;11.10;;
1416;SDS011;703;51.162;13.574;2022-10-31T15:35:20;38.17;;;9.50;;
1416;SDS011;703;51.162;13.574;2022-10-31T15:37:46;41.97;;;9.97;;
1416;SDS011;703;51.162;13.574;2022-10-31T15:40:14;40.83;;;11.90;;
1416;SDS011;703;51.162;13.574;2022-10-31T15:42:41;44.47;;;12.87;;
1416;SDS011;703;51.162;13.574;2022-10-31T15:47:37;43.50;;;12.73;;
1416;SDS011;703;51.162;13.574;2022-10-31T15:50:05;42.10;;;14.07;;
1416;SDS011;703;51.162;13.574;2022-10-31T15:52:44;42.17;;;13.47;;
1416;SDS011;703;51.162;13.574;2022-10-31T15:55:18;45.57;;;14.50;;
1416;SDS011;703;51.162;13.574;2022-10-31T15:57:47;52.03;;;21.47;;
1416;SDS011;703;51.162;13.574;2022-10-31T16:10:54;48.37;;;19.10;;
1416;SDS011;703;51.162;13.574;2022-10-31T16:13:28;54.07;;;31.73;;
1416;SDS011;703;51.162;13.574;2022-10-31T16:15:59;50.30;;;19.70;;
1416;SDS011;703;51.162;13.574;2022-10-31T16:18:26;47.87;;;16.67;;
1416;SDS011;703;51.162;13.574;2022-10-31T16:20:55;53.03;;;16.93;;
1416;SDS011;703;51.162;13.574;2022-10-31T16:23:22;49.73;;;17.73;;
1416;SDS011;703;51.162;13.574;2022-10-31T16:25:50;47.90;;;17.50;;
1416;SDS011;703;51.162;13.574;2022-10-31T16:28:18;46.33;;;15.80;;
1416;SDS011;703;51.162;13.574;2022-10-31T16:30:47;46.27;;;16.40;;
1416;SDS011;703;51.162;13.574;2022-10-31T16:35:53;47.73;;;17.37;;
1416;SDS011;703;51.162;13.574;2022-10-31T16:38:20;51.17;;;21.23;;
1416;SDS011;703;51.162;13.574;2022-10-31T16:40:46;51.83;;;18.10;;
1416;SDS011;703;51.162;13.574;2022-10-31T16:43:12;50.60;;;22.70;;
1416;SDS011;703;51.162;13.574;2022-10-31T16:45:44;50.23;;;21.27;;
1416;SDS011;703;51.162;13.574;2022-10-31T16:48:18;51.37;;;19.70;;
1416;SDS011;703;51.162;13.574;2022-10-31T16:50:46;52.43;;;20.67;;
1416;SDS011;703;51.162;13.574;2022-10-31T16:53:13;54.70;;;20.70;;
1416;SDS011;703;51.162;13.574;2022-10-31T16:55:48;53.03;;;22.50;;
1416;SDS011;703;51.162;13.574;2022-10-31T16:58:21;51.80;;;23.00;;
1416;SDS011;703;51.162;13.574;2022-10-31T17:00:48;54.20;;;22.10;;
1416;SDS011;703;51.162;13.574;2022-10-31T17:03:14;50.23;;;21.00;;
1416;SDS011;703;51.162;13.574;2022-10-31T17:05:39;53.37;;;21.20;;
1416;SDS011;703;51.162;13.574;2022-10-31T17:08:05;50.37;;;16.70;;
1416;SDS011;703;51.162;13.574;2022-10-31T17:10:31;53.57;;;19.83;;
1416;SDS011;703;51.162;13.574;2022-10-31T17:12:57;51.40;;;17.00;;
1416;SDS011;703;51.162;13.574;2022-10-31T17:15:25;48.27;;;17.10;;
1416;SDS011;703;51.162;13.574;2022-10-31T17:17:51;49.37;;;17.80;;
1416;SDS011;703;51.162;13.574;2022-10-31T17:20:19;47.40;;;17.70;;
1416;SDS011;703;51.162;13.574;2022-10-31T17:22:50;56.93;;;18.60;;
1416;SDS011;703;51.162;13.574;2022-10-31T17:25:17;52.17;;;18.87;;
1416;SDS011;703;51.162;13.574;2022-10-31T17:27:44;53.40;;;19.67;;
1416;SDS011;703;51.162;13.574;2022-10-31T17:30:12;52.80;;;17.80;;
1416;SDS011;703;51.162;13.574;2022-10-31T17:32:40;51.43;;;18.47;;
1416;SDS011;703;51.162;13.574;2022-10-31T17:35:07;49.83;;;17.63;;
1416;SDS011;703;51.162;13.574;2022-10-31T17:37:33;54.13;;;18.27;;